Latest Weather Observations for Strathalbyn

IDS60801

Issued at 1:01 pm CST Friday 4 September 2015 (issued every 30 minutes, with the page automatically refreshed every 10 minutes)

About weather observations | Map of weather stations | Latest weather observations for SA | Other Formats
Station Details ID: 024580 Name: STRATHALBYN RACECOURSE Lat: -35.28 Lon: 138.89 Height: 58.0 m
Data from the previous 72 hours. | See also: Recent months at Strathalbyn
Date/Time
CST
Temp
°C
App
Temp
°C
Dew
Point
Rel
Hum
%
Delta-T
°C
Wind Press
QNH
hPa
Press
MSL
hPa
Rain
since 9 am
mm
Dir
 
Spd
km/h
Gust
km/h
Spd
kts
Gust
kts
04/01:00pm 12.4 10.4 6.2 66 2.9 SW 6 11 3 6 1026.6 - 0.0
04/12:30pm 11.8 9.5 5.9 67 2.7 SW 7 11 4 6 1026.9 - 0.0
04/12:00pm 11.3 8.7 6.0 70 2.5 SW 9 13 5 7 1027.1 1027.1 0.0
04/11:30am 11.1 8.1 6.0 71 2.4 SW 11 17 6 9 1027.5 - 0.0
04/11:00am 11.4 8.4 6.1 70 2.5 SW 11 15 6 8 1027.7 - 0.0
04/10:30am 11.7 9.5 5.1 64 3.0 SW 6 11 3 6 1028.0 - 0.0
04/10:00am 11.7 9.4 4.9 63 3.1 SW 6 9 3 5 1028.1 - 0.0
04/09:30am 11.4 9.8 6.3 71 2.4 SW 4 11 2 6 1028.3 - 0.0
04/09:00am 10.8 9.0 7.1 78 1.8 SW 6 9 3 5 1028.4 1028.4 0.0
04/08:30am 9.7 7.7 7.0 83 1.3 SW 7 9 4 5 1028.3 - 0.0
04/08:00am 8.7 6.7 7.2 90 0.7 SW 7 9 4 5 1028.3 - 0.0
04/07:30am 7.5 4.9 6.0 90 0.7 SW 9 11 5 6 1027.9 - 0.0
04/07:00am 6.9 4.7 5.2 89 0.8 SW 6 7 3 4 1027.4 - 0.0
04/06:30am 7.4 5.2 5.5 88 0.8 SW 6 11 3 6 1027.1 - 0.0
04/06:00am 8.4 5.9 6.4 87 0.9 SW 9 11 5 6 1026.8 1026.8 0.0
04/05:30am 8.2 6.6 6.3 88 0.9 SW 4 7 2 4 1026.6 - 0.0
04/05:00am 8.2 6.2 6.2 87 0.9 SW 6 7 3 4 1026.4 - 0.0
04/04:30am 8.4 6.8 6.4 87 0.9 SW 4 6 2 3 1026.3 - 0.0
04/04:00am 8.5 5.9 6.3 86 1.0 SW 9 15 5 8 1026.2 - 0.0
04/03:30am 8.8 6.6 6.4 85 1.1 WSW 7 9 4 5 1026.1 - 0.0
04/03:00am 9.2 6.7 6.6 84 1.2 WSW 9 15 5 8 1026.3 1026.3 0.0
04/02:30am 9.5 6.6 6.6 82 1.4 WSW 11 15 6 8 1026.4 - 0.0
04/02:00am 9.4 6.5 6.7 83 1.3 WSW 11 15 6 8 1026.6 - 0.0
04/01:30am 9.5 7.0 6.4 81 1.4 SW 9 13 5 7 1026.5 - 0.0
04/01:00am 9.8 6.9 6.7 81 1.5 WSW 11 15 6 8 1026.5 - 0.0
04/12:30am 9.8 7.0 7.1 83 1.3 WSW 11 17 6 9 1026.5 - 0.0
04/12:00am 9.9 7.2 7.2 83 1.3 WSW 11 15 6 8 1026.5 1026.5 0.0
 
Date/Time
CST
Temp
°C
App
Temp
°C
Dew
Point
Rel
Hum
%
Delta-T
°C
Wind Press
QNH
hPa
Press
MSL
hPa
Rain
since 9 am
mm
Dir
 
Spd
km/h
Gust
km/h
Spd
kts
Gust
kts
03/11:30pm 9.8 6.6 6.9 82 1.4 WSW 13 19 7 10 1026.4 - 0.0
03/11:00pm 9.6 6.7 6.5 81 1.4 WSW 11 15 6 8 1026.4 - 0.0
03/10:30pm 10.3 7.6 7.2 81 1.5 SW 11 15 6 8 1026.4 - 0.0
03/10:00pm 10.2 7.5 7.3 82 1.4 SW 11 15 6 8 1026.2 - 0.0
03/09:30pm 10.3 7.7 7.7 84 1.3 SW 11 13 6 7 1026.0 - 0.0
03/09:00pm 10.6 8.4 8.0 84 1.3 SSW 9 11 5 6 1026.1 1026.1 0.0
03/08:30pm 10.7 8.5 7.9 83 1.4 SSW 9 11 5 6 1025.9 - 0.0
03/08:00pm 10.8 8.3 8.0 83 1.4 SSW 11 13 6 7 1025.6 - 0.0
03/07:30pm 10.5 8.3 7.7 83 1.4 SSW 9 13 5 7 1025.2 - 0.0
03/07:00pm 10.7 8.2 8.1 84 1.3 SSW 11 13 6 7 1025.0 - 0.0
03/06:30pm 10.8 7.8 7.9 82 1.4 SSW 13 17 7 9 1024.7 - 0.0
03/06:00pm 11.3 8.4 8.0 80 1.6 SSW 13 19 7 10 1024.4 1024.4 0.0
03/05:30pm 11.7 8.1 8.4 80 1.6 S 17 20 9 11 1024.1 - 0.0
03/05:00pm 12.0 7.4 8.3 78 1.8 S 22 32 12 17 1023.5 - 0.0
03/04:30pm 12.2 7.4 8.9 80 1.7 S 24 33 13 18 1023.1 - 0.0
03/04:00pm 12.5 7.4 9.1 80 1.7 S 26 32 14 17 1022.9 - 0.0
03/03:30pm 12.7 8.0 9.3 80 1.7 S 24 33 13 18 1022.4 - 0.0
03/03:00pm 13.1 7.3 9.5 79 1.8 S 30 41 16 22 1021.9 1021.9 0.0
03/02:30pm 13.0 8.0 9.4 79 1.8 S 26 41 14 22 1021.7 - 0.0
03/02:00pm 13.7 8.4 9.9 78 2.0 S 28 39 15 21 1021.5 - 0.0
03/01:30pm 13.4 7.8 10.0 80 1.8 SSW 30 41 16 22 1021.2 - 0.0
03/01:00pm 13.6 8.0 10.2 80 1.8 SSW 30 41 16 22 1021.2 - 0.0
03/12:30pm 13.4 7.5 10.4 82 1.6 SSW 32 39 17 21 1021.3 - 0.0
03/12:08pm 13.6 7.4 10.0 79 1.9 S 33 52 18 28 1021.1 - 0.0
03/12:00pm 14.3 8.4 11.1 81 1.7 S 33 46 18 25 1021.1 1021.1 0.0
03/11:30am 13.4 6.5 10.4 82 1.6 S 37 50 20 27 1020.6 - 0.0
03/11:00am 13.2 7.7 10.7 85 1.3 SSW 30 41 16 22 1020.6 - 0.0
03/10:30am 12.8 7.0 10.7 87 1.1 S 32 44 17 24 1020.4 - 0.0
03/10:00am 12.1 8.4 10.3 89 0.9 S 20 30 11 16 1020.3 - 0.0
03/09:30am 11.9 7.0 9.8 87 1.1 S 26 35 14 19 1020.2 - 0.0
03/09:00am 12.7 8.7 10.4 86 1.2 S 22 32 12 17 1019.6 1019.7 10.8
03/08:30am 12.5 7.2 10.0 85 1.3 SSW 28 39 15 21 1018.6 - 10.8
03/08:00am 12.4 7.2 10.1 86 1.2 SSW 28 39 15 21 1017.9 - 10.8
03/07:30am 12.3 7.4 9.9 85 1.2 SSW 26 35 14 19 1017.0 - 10.8
03/07:00am 12.1 7.6 10.0 87 1.1 SSW 24 32 13 17 1016.5 - 10.8
03/06:30am 11.9 7.3 9.6 86 1.2 SSW 24 32 13 17 1015.8 - 10.8
03/06:00am 11.9 6.9 9.6 86 1.2 SSW 26 35 14 19 1015.2 1015.3 10.8
03/05:30am 11.7 7.5 9.8 88 1.0 SSW 22 30 12 16 1014.7 - 10.8
03/05:00am 11.4 7.2 9.7 89 0.9 SW 22 32 12 17 1013.9 - 10.8
03/04:30am 11.3 7.5 9.0 86 1.1 WSW 19 28 10 15 1013.1 - 10.4
03/04:00am 11.0 7.5 8.8 86 1.1 WSW 17 22 9 12 1012.8 - 10.4
03/03:30am 10.5 7.8 8.8 89 0.8 WSW 13 19 7 10 1012.5 - 10.4
03/03:00am 10.5 7.8 8.9 90 0.8 WSW 13 17 7 9 1012.0 1012.0 10.4
03/02:30am 10.6 7.8 8.5 87 1.0 WSW 13 19 7 10 1011.9 - 10.4
03/02:00am 10.5 7.7 8.6 88 0.9 SW 13 17 7 9 1012.0 - 10.4
03/01:30am 10.1 7.2 8.0 87 1.0 SW 13 19 7 10 1011.6 - 10.4
03/01:00am 10.6 7.0 8.4 86 1.1 WSW 17 26 9 14 1011.3 - 10.4
03/12:30am 10.2 7.0 8.6 90 0.8 WSW 15 20 8 11 1010.7 - 10.4
03/12:00am 9.7 6.8 8.3 91 0.7 SW 13 15 7 8 1010.0 1010.0 10.4
 
Date/Time
CST
Temp
°C
App
Temp
°C
Dew
Point
Rel
Hum
%
Delta-T
°C
Wind Press
QNH
hPa
Press
MSL
hPa
Rain
since 9 am
mm
Dir
 
Spd
km/h
Gust
km/h
Spd
kts
Gust
kts
02/11:30pm 9.5 7.3 7.9 90 0.8 SW 9 11 5 6 1009.6 - 10.4
02/11:00pm 9.9 7.4 8.3 90 0.8 SSW 11 15 6 8 1009.7 - 10.4
02/10:30pm 10.0 7.2 8.4 90 0.8 SSW 13 20 7 11 1009.4 - 10.4
02/10:00pm 10.0 6.8 8.4 90 0.8 SW 15 20 8 11 1008.9 - 10.2
02/09:30pm 9.8 5.9 8.6 92 0.6 SSW 19 24 10 13 1008.3 - 10.2
02/09:00pm 9.6 6.4 8.5 93 0.5 SSW 15 19 8 10 1007.4 1007.4 10.2
02/08:30pm 9.4 6.2 8.3 93 0.5 SSW 15 19 8 10 1006.5 - 10.2
02/08:00pm 9.7 6.5 8.5 92 0.6 S 15 19 8 10 1005.7 - 10.2
02/07:30pm 10.2 6.4 9.0 92 0.6 S 19 26 10 14 1005.1 - 10.2
02/07:00pm 10.4 5.7 9.2 92 0.6 S 24 32 13 17 1004.4 - 10.0
02/06:30pm 10.4 6.6 9.2 92 0.6 S 19 24 10 13 1003.8 - 9.4
02/06:00pm 10.4 6.6 9.0 91 0.7 SSE 19 24 10 13 1003.1 1003.1 8.0
02/05:30pm 10.6 7.2 9.2 91 0.7 SE 17 24 9 13 1002.1 - 6.8
02/05:00pm 11.1 8.5 9.4 89 0.9 SE 13 17 7 9 1001.7 - 6.4
02/04:30pm 11.4 9.2 9.5 88 1.0 ENE 11 15 6 8 1001.3 - 5.6
02/04:00pm 11.6 10.1 9.2 85 1.2 N 7 9 4 5 1001.3 - 4.4
02/03:30pm 11.8 11.1 8.6 81 1.6 N 2 7 1 4 1001.2 - 3.8
02/03:00pm 12.0 10.6 8.8 81 1.6 N 6 11 3 6 1001.1 1001.2 3.2
02/02:30pm 11.7 10.3 8.9 83 1.4 N 6 7 3 4 1001.1 - 3.0
02/02:00pm 11.4 9.3 8.3 81 1.5 N 9 13 5 7 1001.3 - 1.6
02/01:30pm 12.0 8.7 7.9 76 2.0 N 15 20 8 11 1001.4 - 0.2
02/01:00pm 12.6 10.2 7.1 69 2.7 N 9 11 5 6 1001.7 - 0.2
02/12:30pm 12.8 8.7 7.9 72 2.4 N 19 24 10 13 1002.3 - 0.2
02/12:00pm 12.5 7.4 6.1 65 3.0 NNW 22 37 12 20 1003.1 1003.1 0.0
02/11:30am 13.3 8.3 6.6 64 3.2 NNW 22 30 12 16 1003.3 - 0.0
02/11:00am 14.9 9.6 6.7 58 4.0 N 24 37 13 20 1003.7 - 0.0
02/10:30am 13.1 9.1 6.7 65 3.1 NNW 17 20 9 11 1004.2 - 0.0
02/10:00am 14.3 10.1 7.6 64 3.3 NNW 19 24 10 13 1004.3 - 0.0
02/09:30am 13.3 8.9 6.4 63 3.3 N 19 28 10 15 1004.8 - 0.0
02/09:00am 12.9 7.2 6.9 67 2.9 NNW 26 37 14 20 1004.6 1004.6 0.8
02/08:30am 11.3 6.6 6.2 71 2.4 N 20 30 11 16 1004.6 - 0.8
02/08:00am 11.1 7.3 6.0 71 2.4 N 15 28 8 15 1004.6 - 0.8
02/07:30am 11.1 7.8 6.3 72 2.3 N 13 26 7 14 1004.6 - 0.8
02/07:00am 10.4 7.8 6.0 74 2.0 NNE 9 13 5 7 1004.5 - 0.8
02/06:30am 11.0 7.7 6.4 73 2.2 N 13 17 7 9 1004.4 - 0.8
02/06:00am 10.6 7.5 7.1 79 1.7 N 13 15 7 8 1004.5 1004.5 0.8
02/05:30am 10.5 6.7 7.4 81 1.5 NNE 17 22 9 12 1004.3 - 0.8
02/05:00am 10.8 6.9 7.1 78 1.8 NNE 17 22 9 12 1004.3 - 0.8
02/04:30am 11.3 7.4 7.2 76 2.0 NNE 17 22 9 12 1004.5 - 0.8
02/04:00am 11.3 8.3 7.6 78 1.8 NE 13 17 7 9 1004.8 - 0.8
02/03:30am 11.7 8.2 7.4 75 2.1 N 15 22 8 12 1005.5 - 0.6
02/03:00am 11.8 8.0 7.7 76 2.0 N 17 24 9 13 1005.3 1005.3 0.6
02/02:30am 11.6 7.9 8.1 79 1.7 N 17 24 9 13 1006.0 - 0.6
02/02:00am 10.7 7.0 8.1 84 1.3 NNE 17 22 9 12 1006.4 - 0.6
02/01:30am 10.9 7.5 7.8 81 1.5 NNE 15 19 8 10 1006.9 - 0.6
02/01:00am 11.7 7.3 7.6 76 2.0 N 20 30 11 16 1007.1 - 0.4
02/12:30am 12.4 7.6 7.5 72 2.4 N 22 32 12 17 1007.2 - 0.2
02/12:00am 13.3 10.3 7.5 68 2.9 NNE 13 24 7 13 1007.1 1007.1 0.0
 
Date/Time
CST
Temp
°C
App
Temp
°C
Dew
Point
Rel
Hum
%
Delta-T
°C
Wind Press
QNH
hPa
Press
MSL
hPa
Rain
since 9 am
mm
Dir
 
Spd
km/h
Gust
km/h
Spd
kts
Gust
kts
01/11:30pm 13.6 10.1 7.4 66 3.0 N 15 20 8 11 1006.9 - 0.0
01/11:00pm 14.0 10.3 4.6 53 4.4 NNE 13 19 7 10 1007.2 - 0.0
01/10:30pm 13.8 9.5 3.3 49 4.7 NNE 15 20 8 11 1007.2 - 0.0
01/10:00pm 14.6 8.7 1.8 42 5.6 NNE 22 28 12 15 1007.0 - 0.0
01/09:30pm 14.2 9.4 2.5 45 5.2 N 17 28 9 15 1007.5 - 0.0
01/09:00pm 14.0 8.7 3.2 48 4.9 NNE 20 26 11 14 1007.5 1007.5 0.0
01/08:30pm 13.5 9.2 5.4 58 3.8 NNE 17 24 9 13 1007.5 - 0.0
01/08:00pm 13.0 10.2 7.0 67 2.9 N 11 13 6 7 1007.7 - 0.0
01/07:30pm 13.4 10.9 6.7 64 3.2 N 9 11 5 6 1007.6 - 0.0
01/07:00pm 14.2 11.4 6.8 61 3.6 N 11 13 6 7 1007.5 - 0.0
01/06:30pm 14.6 12.2 6.9 60 3.8 NNE 9 11 5 6 1007.7 - 0.0
01/06:00pm 14.6 12.3 7.4 62 3.6 NE 9 9 5 5 1007.9 1007.9 0.0
01/05:30pm 15.6 13.4 6.3 54 4.5 N 7 11 4 6 1007.9 - 0.0
01/05:00pm 16.4 13.2 5.1 47 5.4 N 11 17 6 9 1007.9 - 0.0
01/04:30pm 17.1 13.7 5.7 47 5.5 N 13 19 7 10 1008.1 - 0.0
01/04:00pm 17.4 13.4 5.0 44 5.9 N 15 22 8 12 1008.3 - 0.0
01/03:30pm 17.8 14.5 4.7 42 6.3 NNW 11 17 6 9 1008.6 - 0.0
01/03:00pm 18.3 13.9 4.5 40 6.6 NW 17 28 9 15 1009.0 1009.0 0.0
01/02:30pm 18.5 14.5 5.0 41 6.5 N 15 24 8 13 1009.3 - 0.0
01/02:00pm 18.3 14.1 5.5 43 6.2 N 17 24 9 13 1009.2 - 0.0
01/01:30pm 17.3 13.9 10.4 64 3.7 ENE 19 22 10 12 1009.6 - 0.0

Other Formats:

Comma delimited format used in spreadsheet applications
http://www.bom.gov.au/fwo/IDS60801/IDS60801.94814.axf

JavaScript Object Notation format (JSON) in row-major order
http://www.bom.gov.au/fwo/IDS60801/IDS60801.94814.json